createdAt,value
2018-04-29T00:00:53.420Z,9.00
2018-04-29T00:01:54.141Z,9.00
2018-04-29T00:02:54.891Z,9.00
2018-04-29T00:03:55.614Z,10.00
2018-04-29T00:04:56.337Z,9.00
2018-04-29T00:05:57.070Z,9.00
2018-04-29T00:06:57.790Z,9.00
2018-04-29T00:07:58.535Z,10.00
2018-04-29T00:08:59.257Z,7.00
2018-04-29T00:09:59.979Z,8.00
2018-04-29T00:11:00.726Z,9.00
2018-04-29T00:12:01.459Z,9.00
2018-04-29T00:13:02.225Z,9.00
2018-04-29T00:14:02.948Z,10.00
2018-04-29T00:15:03.696Z,9.00
2018-04-29T00:16:04.415Z,10.00
2018-04-29T00:17:05.155Z,8.00
2018-04-29T00:18:05.883Z,8.00
2018-04-29T00:19:06.653Z,9.00
2018-04-29T00:20:07.379Z,10.00
2018-04-29T00:21:08.094Z,9.00
2018-04-29T00:22:08.838Z,10.00
2018-04-29T00:23:09.563Z,9.00
2018-04-29T00:24:10.284Z,9.00
2018-04-29T00:25:11.007Z,8.00
2018-04-29T00:26:11.731Z,8.00
2018-04-29T00:27:12.455Z,9.00
2018-04-29T00:28:13.175Z,9.00
2018-04-29T00:29:13.896Z,10.00
2018-04-29T00:30:14.631Z,10.00
2018-04-29T00:31:15.353Z,10.00
2018-04-29T00:32:16.111Z,9.00
2018-04-29T00:33:16.846Z,10.00
2018-04-29T00:34:17.573Z,10.00
2018-04-29T00:35:18.292Z,9.00
2018-04-29T00:36:19.025Z,12.00
2018-04-29T00:37:19.750Z,12.00
2018-04-29T00:38:20.472Z,12.00
2018-04-29T00:39:21.195Z,10.00
2018-04-29T00:40:21.951Z,9.00
2018-04-29T00:41:22.684Z,9.00
2018-04-29T00:42:23.421Z,11.00
2018-04-29T00:43:24.152Z,10.00
2018-04-29T00:44:24.873Z,9.00
2018-04-29T00:45:25.606Z,9.00
2018-04-29T00:46:26.332Z,10.00
2018-04-29T00:47:27.079Z,10.00
2018-04-29T00:48:27.800Z,9.00
2018-04-29T00:49:28.533Z,11.00
2018-04-29T00:50:29.254Z,9.00
2018-04-29T00:51:29.989Z,9.00
2018-04-29T00:52:30.722Z,11.00
2018-04-29T00:53:31.445Z,8.00
2018-04-29T00:54:32.165Z,10.00
2018-04-29T00:55:32.897Z,9.00
2018-04-29T00:56:33.624Z,10.00
2018-04-29T00:57:34.345Z,10.00
2018-04-29T00:58:35.068Z,12.00
2018-04-29T00:59:35.791Z,11.00
2018-04-29T01:00:36.515Z,9.00
2018-04-29T01:01:37.237Z,10.00
2018-04-29T01:02:37.959Z,10.00
2018-04-29T01:03:38.682Z,10.00
2018-04-29T01:04:39.417Z,11.00
2018-04-29T01:05:40.140Z,12.00
2018-04-29T01:06:40.874Z,11.00
2018-04-29T01:07:41.596Z,12.00
2018-04-29T01:08:42.331Z,13.00
2018-04-29T01:09:43.066Z,11.00
2018-04-29T01:10:43.789Z,11.00
2018-04-29T01:11:44.510Z,10.00
2018-04-29T01:12:45.235Z,11.00
2018-04-29T01:13:45.994Z,12.00
2018-04-29T01:14:46.730Z,12.00
2018-04-29T01:15:47.472Z,12.00
2018-04-29T01:16:48.202Z,11.00
2018-04-29T01:17:48.924Z,12.00
2018-04-29T01:18:49.637Z,13.00
2018-04-29T01:19:50.361Z,11.00
2018-04-29T01:20:51.073Z,12.00
2018-04-29T01:21:51.784Z,11.00
2018-04-29T01:22:52.509Z,8.00
2018-04-29T01:23:53.223Z,10.00
2018-04-29T01:24:53.948Z,11.00
2018-04-29T01:25:54.662Z,10.00
2018-04-29T01:26:55.373Z,13.00
2018-04-29T01:27:56.085Z,12.00
2018-04-29T01:28:56.810Z,11.00
2018-04-29T01:29:57.537Z,10.00
2018-04-29T01:30:58.251Z,10.00
2018-04-29T01:31:58.971Z,11.00
2018-04-29T01:32:59.692Z,12.00
2018-04-29T01:34:00.405Z,12.00
2018-04-29T01:35:01.128Z,11.00
2018-04-29T01:36:01.831Z,10.00
2018-04-29T01:37:02.556Z,10.00
2018-04-29T01:38:03.283Z,12.00
2018-04-29T01:39:03.994Z,11.00
2018-04-29T01:40:04.706Z,11.00
2018-04-29T01:41:05.420Z,10.00
2018-04-29T01:42:06.130Z,12.00
2018-04-29T01:43:06.843Z,10.00
2018-04-29T01:44:07.568Z,11.00
2018-04-29T01:45:08.281Z,10.00
2018-04-29T01:46:08.995Z,10.00
2018-04-29T01:47:09.707Z,10.00
2018-04-29T01:48:10.421Z,13.00
2018-04-29T01:49:11.133Z,12.00
2018-04-29T01:50:11.846Z,10.00
2018-04-29T01:51:12.573Z,12.00
2018-04-29T01:52:13.288Z,12.00
2018-04-29T01:53:14.000Z,13.00
2018-04-29T01:54:14.716Z,12.00
2018-04-29T01:55:15.427Z,10.00
2018-04-29T01:56:16.139Z,10.00
2018-04-29T01:57:16.852Z,11.00
2018-04-29T01:58:17.564Z,15.00
2018-04-29T01:59:18.276Z,15.00
2018-04-29T02:00:18.988Z,12.00
2018-04-29T02:01:19.701Z,10.00
2018-04-29T02:02:20.412Z,12.00
2018-04-29T02:03:21.125Z,11.00
2018-04-29T02:04:21.835Z,12.00
2018-04-29T02:05:22.549Z,10.00
2018-04-29T02:06:23.259Z,12.00
2018-04-29T02:07:23.972Z,13.00
2018-04-29T02:08:24.697Z,10.00
2018-04-29T02:09:25.411Z,12.00
2018-04-29T02:10:26.123Z,12.00
2018-04-29T02:11:26.833Z,11.00
2018-04-29T02:12:27.545Z,11.00
2018-04-29T02:13:28.271Z,13.00
2018-04-29T02:14:28.985Z,11.00
2018-04-29T02:15:29.699Z,13.00
2018-04-29T02:16:30.412Z,12.00
2018-04-29T02:17:31.125Z,12.00
2018-04-29T02:18:31.838Z,13.00
2018-04-29T02:19:32.551Z,13.00
2018-04-29T02:20:33.267Z,10.00
2018-04-29T02:21:33.989Z,12.00
2018-04-29T02:22:34.702Z,13.00
2018-04-29T02:23:35.427Z,12.00
2018-04-29T02:24:36.141Z,12.00
2018-04-29T02:25:36.854Z,11.00
2018-04-29T02:26:37.579Z,11.00
2018-04-29T02:27:38.304Z,10.00
2018-04-29T02:28:39.031Z,11.00
2018-04-29T02:29:39.744Z,12.00
2018-04-29T02:30:40.457Z,12.00
2018-04-29T02:31:41.421Z,12.00
2018-04-29T02:32:42.147Z,11.00
2018-04-29T02:33:42.871Z,13.00
2018-04-29T02:34:43.599Z,11.00
2018-04-29T02:35:44.314Z,11.00
2018-04-29T02:36:45.030Z,10.00
2018-04-29T02:37:45.740Z,12.00
2018-04-29T02:38:46.452Z,12.00
2018-04-29T02:39:47.163Z,10.00
2018-04-29T02:40:47.932Z,11.00
2018-04-29T02:41:48.591Z,11.00
2018-04-29T02:42:49.313Z,12.00
2018-04-29T02:43:50.026Z,12.00
2018-04-29T02:44:50.738Z,12.00
2018-04-29T02:45:51.451Z,12.00
2018-04-29T02:46:52.163Z,12.00
2018-04-29T02:47:52.876Z,12.00
2018-04-29T02:48:53.588Z,10.00
2018-04-29T02:49:54.301Z,12.00
2018-04-29T02:50:55.015Z,14.00
2018-04-29T02:51:55.726Z,10.00
2018-04-29T02:52:56.444Z,12.00
2018-04-29T02:53:57.152Z,11.00
2018-04-29T02:54:57.865Z,11.00
2018-04-29T02:55:58.578Z,12.00
2018-04-29T02:56:59.291Z,13.00
2018-04-29T02:58:00.008Z,11.00
2018-04-29T02:59:00.717Z,11.00
2018-04-29T03:00:01.431Z,12.00
2018-04-29T03:01:02.142Z,10.00
2018-04-29T03:02:02.855Z,11.00
2018-04-29T03:03:03.568Z,12.00
2018-04-29T03:04:04.279Z,11.00
2018-04-29T03:05:04.996Z,11.00
2018-04-29T03:06:05.702Z,10.00
2018-04-29T03:07:06.413Z,11.00
2018-04-29T03:08:07.124Z,9.00
2018-04-29T03:09:07.837Z,10.00
2018-04-29T03:10:08.557Z,11.00
2018-04-29T03:11:09.271Z,11.00
2018-04-29T03:12:09.983Z,11.00
2018-04-29T03:13:10.697Z,12.00
2018-04-29T03:14:11.409Z,11.00
2018-04-29T03:15:12.135Z,13.00
2018-04-29T03:16:12.848Z,9.00
2018-04-29T03:17:13.563Z,13.00
2018-04-29T03:18:14.274Z,12.00
2018-04-29T03:19:14.988Z,12.00
2018-04-29T03:20:15.700Z,12.00
2018-04-29T03:21:16.413Z,13.00
2018-04-29T03:22:17.123Z,13.00
2018-04-29T03:23:17.850Z,12.00
2018-04-29T03:24:18.560Z,12.00
2018-04-29T03:25:19.273Z,10.00
2018-04-29T03:26:19.986Z,12.00
2018-04-29T03:27:20.697Z,11.00
2018-04-29T03:28:21.408Z,10.00
2018-04-29T03:29:22.120Z,12.00
2018-04-29T03:30:22.846Z,13.00
2018-04-29T03:31:23.560Z,12.00
2018-04-29T03:32:24.273Z,11.00
2018-04-29T03:33:24.985Z,11.00
2018-04-29T03:34:25.707Z,12.00
2018-04-29T03:35:26.421Z,13.00
2018-04-29T03:36:27.134Z,12.00
2018-04-29T03:37:27.845Z,12.00
2018-04-29T03:38:28.568Z,11.00
2018-04-29T03:39:29.278Z,9.00
2018-04-29T03:40:29.991Z,12.00
2018-04-29T03:41:30.701Z,11.00
2018-04-29T03:42:31.429Z,12.00
2018-04-29T03:43:32.154Z,12.00
2018-04-29T03:44:32.867Z,12.00
2018-04-29T03:45:33.580Z,10.00
2018-04-29T03:46:34.293Z,12.00
2018-04-29T03:47:35.006Z,11.00
2018-04-29T03:48:35.718Z,10.00
2018-04-29T03:49:36.430Z,13.00
2018-04-29T03:50:37.144Z,12.00
2018-04-29T03:51:37.863Z,11.00
2018-04-29T03:52:38.574Z,11.00
2018-04-29T03:53:39.287Z,13.00
2018-04-29T03:54:40.000Z,12.00
2018-04-29T03:55:40.713Z,10.00
2018-04-29T03:56:41.424Z,13.00
2018-04-29T03:57:42.138Z,11.00
2018-04-29T03:58:42.849Z,13.00
2018-04-29T03:59:43.562Z,14.00
2018-04-29T04:00:44.272Z,14.00
2018-04-29T04:01:51.287Z,14.00
2018-04-29T04:02:45.713Z,12.00
2018-04-29T04:03:46.431Z,13.00
2018-04-29T04:04:47.157Z,15.00
2018-04-29T04:05:47.871Z,18.00
2018-04-29T04:06:48.587Z,14.00
2018-04-29T04:07:49.301Z,12.00
2018-04-29T04:08:50.020Z,14.00
2018-04-29T04:09:50.794Z,14.00
2018-04-29T04:10:51.466Z,12.00
2018-04-29T04:11:52.191Z,14.00
2018-04-29T04:12:52.924Z,12.00
2018-04-29T04:13:53.636Z,13.00
2018-04-29T04:14:54.351Z,13.00
2018-04-29T04:15:55.067Z,14.00
2018-04-29T04:16:55.793Z,13.00
2018-04-29T04:17:56.522Z,12.00
2018-04-29T04:18:57.238Z,13.00
2018-04-29T04:19:57.954Z,13.00
2018-04-29T04:20:58.668Z,15.00
2018-04-29T04:21:59.384Z,15.00
2018-04-29T04:23:00.099Z,15.00
2018-04-29T04:24:00.811Z,13.00
2018-04-29T04:25:01.526Z,15.00
2018-04-29T04:26:02.244Z,14.00
2018-04-29T04:27:02.958Z,15.00
2018-04-29T04:28:03.686Z,13.00
2018-04-29T04:29:04.413Z,13.00
2018-04-29T04:30:05.131Z,15.00
2018-04-29T04:31:05.845Z,14.00
2018-04-29T04:32:06.561Z,14.00
2018-04-29T04:33:07.275Z,14.00
2018-04-29T04:34:08.005Z,14.00
2018-04-29T04:35:08.725Z,14.00
2018-04-29T04:36:09.443Z,13.00
2018-04-29T04:37:10.159Z,11.00
2018-04-29T04:38:10.881Z,13.00
2018-04-29T04:39:11.597Z,15.00
2018-04-29T04:40:12.397Z,15.00
2018-04-29T04:41:13.031Z,15.00
2018-04-29T04:42:13.748Z,13.00
2018-04-29T04:43:14.466Z,12.00
2018-04-29T04:44:15.190Z,11.00
2018-04-29T04:45:15.899Z,12.00
2018-04-29T04:46:16.615Z,11.00
2018-04-29T04:47:17.330Z,11.00
2018-04-29T04:48:18.045Z,12.00
2018-04-29T04:49:18.762Z,14.00
2018-04-29T04:50:19.492Z,12.00
2018-04-29T04:51:20.222Z,13.00
2018-04-29T04:52:20.939Z,11.00
2018-04-29T04:53:21.657Z,12.00
2018-04-29T04:54:22.373Z,12.00
2018-04-29T04:55:23.090Z,11.00
2018-04-29T04:56:23.807Z,12.00
2018-04-29T04:57:24.523Z,13.00
2018-04-29T04:58:25.240Z,11.00
2018-04-29T04:59:25.955Z,16.00
2018-04-29T05:00:26.684Z,12.00
2018-04-29T05:01:27.399Z,10.00
2018-04-29T05:02:28.117Z,12.00
2018-04-29T05:03:28.834Z,13.00
2018-04-29T05:04:29.550Z,13.00
2018-04-29T05:05:30.265Z,12.00
2018-04-29T05:06:30.983Z,12.00
2018-04-29T05:07:31.701Z,13.00
2018-04-29T05:08:32.416Z,15.00
2018-04-29T05:09:33.132Z,12.00
2018-04-29T05:10:33.849Z,13.00
2018-04-29T05:11:34.565Z,14.00
2018-04-29T05:12:35.282Z,12.00
2018-04-29T05:13:36.000Z,14.00
2018-04-29T05:14:36.719Z,14.00
2018-04-29T05:15:37.434Z,16.00
2018-04-29T05:16:38.162Z,15.00
2018-04-29T05:17:38.877Z,16.00
2018-04-29T05:18:39.595Z,18.00
2018-04-29T05:19:40.313Z,18.00
2018-04-29T05:20:41.030Z,17.00
2018-04-29T05:21:41.747Z,15.00
2018-04-29T05:22:42.462Z,16.00
2018-04-29T05:23:43.181Z,15.00
2018-04-29T05:24:43.896Z,14.00
2018-04-29T05:25:44.612Z,14.00
2018-04-29T05:26:45.329Z,12.00
2018-04-29T05:27:46.048Z,14.00
2018-04-29T05:28:46.765Z,14.00
2018-04-29T05:29:47.482Z,14.00
2018-04-29T05:30:48.197Z,16.00
2018-04-29T05:31:48.914Z,13.00
2018-04-29T05:32:49.631Z,16.00
2018-04-29T05:33:50.348Z,14.00
2018-04-29T05:34:51.067Z,10.00
2018-04-29T05:35:51.787Z,12.00
2018-04-29T05:36:52.506Z,12.00
2018-04-29T05:37:53.220Z,11.00
2018-04-29T05:38:53.939Z,15.00
2018-04-29T05:39:54.656Z,16.00
2018-04-29T05:40:55.373Z,13.00
2018-04-29T05:41:56.105Z,13.00
2018-04-29T05:42:56.820Z,15.00
2018-04-29T05:43:57.539Z,14.00
2018-04-29T05:44:58.256Z,16.00
2018-04-29T05:45:58.973Z,16.00
2018-04-29T05:46:59.706Z,14.00
2018-04-29T05:48:00.429Z,15.00
2018-04-29T05:49:01.155Z,13.00
2018-04-29T05:50:01.889Z,13.00
2018-04-29T05:51:02.619Z,13.00
2018-04-29T05:52:03.340Z,14.00
2018-04-29T05:53:04.057Z,16.00
2018-04-29T05:54:04.787Z,16.00
2018-04-29T05:55:05.539Z,13.00
2018-04-29T05:56:06.237Z,14.00
2018-04-29T05:57:06.957Z,17.00
2018-04-29T05:58:07.674Z,14.00
2018-04-29T05:59:08.395Z,13.00
2018-04-29T06:00:09.112Z,14.00
2018-04-29T06:01:09.833Z,15.00
2018-04-29T06:02:10.552Z,14.00
2018-04-29T06:03:11.271Z,13.00
2018-04-29T06:04:11.991Z,16.00
2018-04-29T06:05:12.710Z,15.00
2018-04-29T06:06:13.432Z,13.00
2018-04-29T06:07:14.163Z,13.00
2018-04-29T06:08:14.880Z,13.00
2018-04-29T06:09:15.612Z,13.00
2018-04-29T06:10:16.331Z,13.00
2018-04-29T06:11:17.064Z,14.00
2018-04-29T06:12:17.798Z,14.00
2018-04-29T06:13:18.529Z,12.00
2018-04-29T06:14:19.249Z,14.00
2018-04-29T06:15:19.969Z,14.00
2018-04-29T06:16:20.686Z,13.00
2018-04-29T06:17:21.408Z,13.00
2018-04-29T06:18:22.140Z,13.00
2018-04-29T06:19:22.873Z,14.00
2018-04-29T06:20:23.653Z,14.00
2018-04-29T06:21:24.327Z,14.00
2018-04-29T06:22:25.045Z,13.00
2018-04-29T06:23:25.779Z,14.00
2018-04-29T06:24:26.499Z,14.00
2018-04-29T06:25:27.218Z,14.00
2018-04-29T06:26:27.936Z,15.00
2018-04-29T06:27:28.658Z,13.00
2018-04-29T06:28:29.378Z,14.00
2018-04-29T06:29:30.101Z,14.00
2018-04-29T06:30:30.819Z,12.00
2018-04-29T06:31:31.541Z,14.00
2018-04-29T06:32:32.273Z,14.00
2018-04-29T06:33:32.995Z,11.00
2018-04-29T06:34:33.719Z,14.00
2018-04-29T06:35:34.443Z,11.00
2018-04-29T06:36:35.170Z,11.00
2018-04-29T06:37:35.890Z,12.00
2018-04-29T06:38:36.610Z,14.00
2018-04-29T06:39:37.333Z,15.00
2018-04-29T06:40:38.068Z,14.00
2018-04-29T06:41:38.799Z,12.00
2018-04-29T06:42:39.522Z,12.00
2018-04-29T06:43:40.245Z,14.00
2018-04-29T06:44:40.969Z,13.00
2018-04-29T06:45:41.689Z,13.00
2018-04-29T06:46:42.411Z,12.00
2018-04-29T06:47:43.145Z,13.00
2018-04-29T06:48:43.864Z,13.00
2018-04-29T06:49:44.586Z,11.00
2018-04-29T06:50:45.323Z,12.00
2018-04-29T06:51:46.045Z,11.00
2018-04-29T06:52:46.781Z,11.00
2018-04-29T06:53:47.516Z,10.00
2018-04-29T06:54:48.238Z,15.00
2018-04-29T06:55:48.961Z,13.00
2018-04-29T06:56:49.690Z,13.00
2018-04-29T06:57:50.425Z,13.00
2018-04-29T06:58:51.148Z,15.00
2018-04-29T06:59:51.871Z,14.00
2018-04-29T07:00:52.661Z,13.00
2018-04-29T07:01:53.318Z,13.00
2018-04-29T07:02:54.040Z,11.00
2018-04-29T07:03:54.765Z,12.00
2018-04-29T07:04:55.488Z,11.00
2018-04-29T07:05:56.212Z,14.00
2018-04-29T07:06:56.935Z,12.00
2018-04-29T07:07:57.658Z,13.00
2018-04-29T07:08:58.380Z,9.00
2018-04-29T07:09:59.116Z,10.00
2018-04-29T07:10:59.837Z,10.00
2018-04-29T07:12:00.563Z,8.00
2018-04-29T07:13:01.283Z,10.00
2018-04-29T07:14:02.023Z,10.00
2018-04-29T07:15:02.744Z,10.00
2018-04-29T07:16:03.467Z,10.00
2018-04-29T07:17:04.190Z,9.00
2018-04-29T07:18:04.916Z,10.00
2018-04-29T07:19:05.656Z,12.00
2018-04-29T07:20:06.380Z,10.00
2018-04-29T07:21:07.104Z,9.00
2018-04-29T07:22:07.831Z,11.00
2018-04-29T07:23:08.558Z,10.00
2018-04-29T07:24:09.288Z,9.00
2018-04-29T07:25:10.018Z,10.00
2018-04-29T07:26:10.744Z,8.00
2018-04-29T07:27:11.473Z,10.00
2018-04-29T07:28:12.201Z,9.00
2018-04-29T07:29:12.934Z,10.00
2018-04-29T07:30:13.662Z,8.00
2018-04-29T07:31:14.392Z,8.00
2018-04-29T07:32:15.137Z,8.00
2018-04-29T07:33:15.869Z,8.00
2018-04-29T07:34:16.597Z,7.00
2018-04-29T07:35:17.340Z,9.00
2018-04-29T07:36:18.068Z,7.00
2018-04-29T07:37:18.808Z,8.00
2018-04-29T07:38:19.551Z,8.00
2018-04-29T07:39:20.277Z,8.00
2018-04-29T07:40:21.013Z,8.00
2018-04-29T07:41:21.751Z,9.00
2018-04-29T07:42:22.486Z,8.00
2018-04-29T07:43:23.229Z,9.00
2018-04-29T07:44:23.964Z,11.00
2018-04-29T07:45:24.688Z,9.00
2018-04-29T07:46:25.483Z,8.00
2018-04-29T07:47:26.148Z,9.00
2018-04-29T07:48:26.858Z,9.00
2018-04-29T07:49:27.580Z,9.00
2018-04-29T07:50:28.304Z,10.00
2018-04-29T07:51:29.031Z,10.00
2018-04-29T07:52:29.809Z,10.00
2018-04-29T07:53:30.475Z,9.00
2018-04-29T07:54:31.196Z,10.00
2018-04-29T07:55:31.936Z,9.00
2018-04-29T07:56:32.652Z,11.00
2018-04-29T07:57:33.389Z,11.00
2018-04-29T07:58:34.110Z,10.00
2018-04-29T07:59:34.845Z,9.00
2018-04-29T08:00:35.582Z,11.00
2018-04-29T08:01:36.305Z,11.00
2018-04-29T08:02:37.026Z,12.00
2018-04-29T08:03:37.748Z,12.00
2018-04-29T08:04:38.469Z,11.00
2018-04-29T08:05:39.193Z,10.00
2018-04-29T08:06:39.916Z,11.00
2018-04-29T08:07:40.636Z,11.00
2018-04-29T08:08:41.357Z,11.00
2018-04-29T08:09:42.081Z,11.00
2018-04-29T08:10:42.801Z,11.00
2018-04-29T08:11:43.526Z,11.00
2018-04-29T08:12:44.245Z,12.00
2018-04-29T08:13:44.981Z,10.00
2018-04-29T08:14:45.712Z,12.00
2018-04-29T08:15:46.483Z,11.00
2018-04-29T08:16:47.154Z,11.00
2018-04-29T08:17:47.875Z,11.00
2018-04-29T08:18:48.597Z,12.00
2018-04-29T08:19:49.319Z,11.00
2018-04-29T08:20:50.040Z,12.00
2018-04-29T08:21:50.761Z,12.00
2018-04-29T08:22:51.493Z,11.00
2018-04-29T08:23:52.214Z,11.00
2018-04-29T08:24:52.937Z,10.00
2018-04-29T08:25:53.657Z,10.00
2018-04-29T08:26:54.382Z,11.00
2018-04-29T08:27:55.100Z,10.00
2018-04-29T08:28:55.822Z,14.00
2018-04-29T08:29:56.551Z,11.00
2018-04-29T08:30:57.276Z,11.00
2018-04-29T08:31:58.001Z,13.00
2018-04-29T08:32:58.719Z,12.00
2018-04-29T08:33:59.439Z,11.00
2018-04-29T08:35:00.160Z,12.00
2018-04-29T08:36:00.882Z,14.00
2018-04-29T08:37:01.603Z,10.00
2018-04-29T08:38:02.324Z,12.00
2018-04-29T08:39:03.046Z,13.00
2018-04-29T08:40:03.778Z,12.00
2018-04-29T08:41:04.499Z,13.00
2018-04-29T08:42:05.221Z,12.00
2018-04-29T08:43:05.943Z,12.00
2018-04-29T08:44:06.674Z,12.00
2018-04-29T08:45:07.384Z,13.00
2018-04-29T08:46:08.106Z,12.00
2018-04-29T08:47:08.832Z,13.00
2018-04-29T08:48:09.548Z,14.00
2018-04-29T08:49:10.270Z,12.00
2018-04-29T08:50:11.034Z,12.00
2018-04-29T08:51:11.712Z,10.00
2018-04-29T08:52:12.432Z,10.00
2018-04-29T08:53:13.154Z,14.00
2018-04-29T08:54:13.875Z,12.00
2018-04-29T08:55:14.598Z,10.00
2018-04-29T08:56:15.324Z,13.00
2018-04-29T08:57:16.057Z,13.00
2018-04-29T08:58:16.781Z,13.00
2018-04-29T08:59:17.504Z,11.00
2018-04-29T09:00:18.233Z,11.00
2018-04-29T09:01:18.966Z,11.00
2018-04-29T09:02:19.689Z,12.00
2018-04-29T09:03:20.411Z,13.00
2018-04-29T09:04:21.136Z,12.00
2018-04-29T09:05:21.860Z,13.00
2018-04-29T09:06:22.581Z,11.00
2018-04-29T09:07:23.302Z,12.00
2018-04-29T09:08:24.039Z,12.00
2018-04-29T09:09:24.775Z,11.00
2018-04-29T09:10:25.500Z,11.00
2018-04-29T09:11:26.233Z,10.00
2018-04-29T09:12:26.963Z,12.00
2018-04-29T09:13:27.687Z,10.00
2018-04-29T09:14:28.421Z,11.00
2018-04-29T09:15:29.146Z,12.00
2018-04-29T09:16:29.868Z,13.00
2018-04-29T09:17:30.660Z,12.00
2018-04-29T09:18:31.316Z,9.00
2018-04-29T09:19:32.039Z,13.00
2018-04-29T09:20:32.763Z,11.00
2018-04-29T09:21:33.485Z,11.00
2018-04-29T09:22:34.221Z,12.00
2018-04-29T09:23:34.940Z,15.00
2018-04-29T09:24:35.663Z,10.00
2018-04-29T09:25:36.385Z,12.00
2018-04-29T09:26:37.121Z,12.00
2018-04-29T09:27:37.828Z,13.00
2018-04-29T09:28:38.564Z,12.00
2018-04-29T09:29:39.300Z,12.00
2018-04-29T09:30:40.019Z,11.00
2018-04-29T09:31:40.745Z,12.00
2018-04-29T09:32:41.477Z,11.00
2018-04-29T09:33:42.212Z,12.00
2018-04-29T09:34:42.945Z,14.00
2018-04-29T09:35:43.674Z,14.00
2018-04-29T09:36:44.404Z,14.00
2018-04-29T09:37:45.124Z,13.00
2018-04-29T09:38:45.846Z,11.00
2018-04-29T09:39:46.570Z,10.00
2018-04-29T09:40:47.291Z,11.00
2018-04-29T09:41:48.014Z,13.00
2018-04-29T09:42:48.737Z,11.00
2018-04-29T09:43:49.460Z,12.00
2018-04-29T09:44:50.195Z,13.00
2018-04-29T09:45:50.916Z,11.00
2018-04-29T09:46:51.637Z,10.00
2018-04-29T09:47:52.371Z,12.00
2018-04-29T09:48:53.093Z,11.00
2018-04-29T09:49:53.816Z,11.00
2018-04-29T09:50:54.537Z,11.00
2018-04-29T09:51:55.264Z,14.00
2018-04-29T09:52:55.978Z,11.00
2018-04-29T09:53:56.702Z,12.00
2018-04-29T09:54:57.434Z,12.00
2018-04-29T09:55:58.154Z,12.00
2018-04-29T09:56:58.874Z,11.00
2018-04-29T09:57:59.595Z,13.00
2018-04-29T09:59:00.316Z,11.00
2018-04-29T10:00:01.040Z,12.00
2018-04-29T10:01:01.821Z,13.00
2018-04-29T10:02:02.490Z,11.00
2018-04-29T10:03:03.212Z,11.00
2018-04-29T10:04:03.940Z,11.00
2018-04-29T10:05:04.666Z,11.00
2018-04-29T10:06:05.387Z,12.00
2018-04-29T10:07:06.109Z,11.00
2018-04-29T10:08:06.830Z,11.00
2018-04-29T10:09:07.567Z,11.00
2018-04-29T10:10:08.302Z,14.00
2018-04-29T10:11:09.033Z,13.00
2018-04-29T10:12:09.755Z,10.00
2018-04-29T10:13:10.494Z,12.00
2018-04-29T10:14:11.206Z,13.00
2018-04-29T10:15:11.942Z,13.00
2018-04-29T10:16:12.664Z,13.00
2018-04-29T10:17:13.399Z,12.00
2018-04-29T10:18:14.124Z,10.00
2018-04-29T10:19:14.859Z,12.00
2018-04-29T10:20:15.581Z,10.00
2018-04-29T10:21:16.305Z,12.00
2018-04-29T10:22:17.029Z,9.00
2018-04-29T10:23:17.750Z,13.00
2018-04-29T10:24:18.485Z,11.00
2018-04-29T10:25:19.222Z,13.00
2018-04-29T10:26:19.945Z,10.00
2018-04-29T10:27:20.681Z,13.00
2018-04-29T10:28:21.421Z,12.00
2018-04-29T10:29:22.142Z,10.00
2018-04-29T10:30:22.879Z,13.00
2018-04-29T10:31:23.605Z,14.00
2018-04-29T10:32:24.348Z,10.00
2018-04-29T10:33:25.054Z,11.00
2018-04-29T10:34:25.780Z,12.00
2018-04-29T10:35:26.500Z,12.00
2018-04-29T10:36:27.226Z,10.00
2018-04-29T10:37:27.953Z,11.00
2018-04-29T10:38:28.689Z,10.00
2018-04-29T10:39:29.428Z,10.00
2018-04-29T10:40:30.152Z,10.00
2018-04-29T10:41:30.881Z,11.00
2018-04-29T10:42:31.606Z,10.00
2018-04-29T10:43:32.336Z,10.00
2018-04-29T10:44:33.063Z,8.00
2018-04-29T10:45:33.794Z,8.00
2018-04-29T10:46:34.539Z,9.00
2018-04-29T10:47:35.276Z,10.00
2018-04-29T10:48:36.007Z,9.00
2018-04-29T10:49:36.742Z,8.00
2018-04-29T10:50:37.471Z,7.00
2018-04-29T10:51:38.217Z,7.00
2018-04-29T10:52:38.946Z,8.00
2018-04-29T10:53:39.677Z,7.00
2018-04-29T10:54:40.408Z,8.00
2018-04-29T10:55:41.137Z,7.00
2018-04-29T10:56:41.892Z,7.00
2018-04-29T10:57:42.612Z,9.00
2018-04-29T10:58:43.361Z,7.00
2018-04-29T10:59:44.085Z,9.00
2018-04-29T11:00:44.812Z,8.00
2018-04-29T11:01:45.542Z,8.00
2018-04-29T11:02:46.271Z,7.00
2018-04-29T11:03:47.001Z,6.00
2018-04-29T11:04:47.729Z,6.00
2018-04-29T11:05:48.471Z,8.00
2018-04-29T11:06:49.217Z,10.00
2018-04-29T11:07:49.941Z,9.00
2018-04-29T11:08:50.673Z,10.00
2018-04-29T11:09:51.404Z,7.00
2018-04-29T11:10:52.135Z,8.00
2018-04-29T11:11:52.866Z,7.00
2018-04-29T11:12:53.596Z,6.00
2018-04-29T11:13:54.328Z,6.00
2018-04-29T11:14:55.062Z,8.00
2018-04-29T11:15:55.795Z,6.00
2018-04-29T11:16:56.528Z,6.00
2018-04-29T11:17:57.276Z,8.00
2018-04-29T11:18:58.012Z,6.00
2018-04-29T11:19:58.756Z,5.00
2018-04-29T11:20:59.487Z,6.00
2018-04-29T11:22:00.235Z,6.00
2018-04-29T11:23:00.976Z,6.00
2018-04-29T11:24:01.708Z,6.00
2018-04-29T11:25:02.444Z,7.00
2018-04-29T11:26:03.172Z,6.00
2018-04-29T11:27:03.901Z,5.00
2018-04-29T11:28:04.632Z,7.00
2018-04-29T11:29:05.363Z,5.00
2018-04-29T11:30:06.094Z,6.00
2018-04-29T11:31:06.827Z,8.00
2018-04-29T11:32:07.571Z,7.00
2018-04-29T11:33:08.302Z,5.00
2018-04-29T11:34:09.033Z,6.00
2018-04-29T11:35:09.778Z,5.00
2018-04-29T11:36:10.523Z,6.00
2018-04-29T11:37:11.267Z,6.00
2018-04-29T11:38:12.003Z,6.00
2018-04-29T11:39:12.729Z,7.00
2018-04-29T11:40:13.457Z,5.00
2018-04-29T11:41:14.188Z,5.00
2018-04-29T11:42:14.918Z,6.00
2018-04-29T11:43:15.647Z,5.00
2018-04-29T11:44:16.375Z,5.00
2018-04-29T11:45:17.105Z,5.00
2018-04-29T11:46:17.850Z,5.00
2018-04-29T11:47:18.587Z,5.00
2018-04-29T11:48:19.318Z,6.00
2018-04-29T11:49:20.047Z,7.00
2018-04-29T11:50:20.776Z,6.00
2018-04-29T11:51:21.504Z,6.00
2018-04-29T11:52:22.235Z,6.00
2018-04-29T11:53:22.975Z,5.00
2018-04-29T11:54:23.707Z,6.00
2018-04-29T11:55:24.443Z,5.00
2018-04-29T11:56:25.175Z,5.00
2018-04-29T11:57:25.899Z,5.00
2018-04-29T11:58:26.631Z,4.00
2018-04-29T11:59:27.372Z,6.00
2018-04-29T12:00:28.103Z,5.00
2018-04-29T12:01:28.833Z,5.00
2018-04-29T12:02:29.601Z,6.00
2018-04-29T12:03:30.293Z,8.00
2018-04-29T12:04:31.028Z,6.00
2018-04-29T12:05:31.756Z,5.00
2018-04-29T12:06:32.492Z,5.00
2018-04-29T12:07:33.219Z,4.00
2018-04-29T12:08:33.951Z,6.00
2018-04-29T12:09:34.682Z,6.00
2018-04-29T12:10:35.414Z,5.00
2018-04-29T12:11:36.147Z,5.00
2018-04-29T12:12:36.875Z,5.00
2018-04-29T12:13:37.623Z,6.00
2018-04-29T12:14:38.370Z,5.00
2018-04-29T12:15:39.102Z,5.00
2018-04-29T12:16:39.836Z,5.00
2018-04-29T12:17:40.569Z,4.00
2018-04-29T12:18:41.303Z,6.00
2018-04-29T12:19:42.036Z,4.00
2018-04-29T12:20:42.770Z,5.00
2018-04-29T12:21:43.504Z,4.00
2018-04-29T12:22:44.247Z,4.00
2018-04-29T12:23:44.982Z,4.00
2018-04-29T12:24:45.731Z,6.00
2018-04-29T12:25:46.472Z,4.00
2018-04-29T12:26:47.203Z,4.00
2018-04-29T12:27:47.934Z,4.00
2018-04-29T12:28:48.665Z,4.00
2018-04-29T12:29:49.395Z,4.00
2018-04-29T12:30:50.127Z,5.00
2018-04-29T12:31:50.858Z,5.00
2018-04-29T12:32:51.587Z,5.00
2018-04-29T12:33:52.321Z,4.00
2018-04-29T12:34:53.075Z,4.00
2018-04-29T12:35:53.817Z,4.00
2018-04-29T12:36:54.546Z,4.00
2018-04-29T12:37:55.276Z,5.00
2018-04-29T12:38:56.007Z,3.00
2018-04-29T12:39:56.829Z,5.00
2018-04-29T12:40:57.477Z,7.00
2018-04-29T12:41:58.221Z,5.00
2018-04-29T12:42:58.950Z,5.00
2018-04-29T12:43:59.693Z,5.00
2018-04-29T12:45:00.426Z,4.00
2018-04-29T12:46:01.169Z,5.00
2018-04-29T12:47:01.897Z,5.00
2018-04-29T12:48:02.627Z,6.00
2018-04-29T12:49:03.358Z,5.00
2018-04-29T12:50:04.089Z,6.00
2018-04-29T12:51:04.817Z,5.00
2018-04-29T12:52:05.564Z,5.00
2018-04-29T12:53:06.290Z,6.00
2018-04-29T12:54:07.037Z,5.00
2018-04-29T12:55:07.778Z,4.00
2018-04-29T12:56:08.547Z,5.00
2018-04-29T12:57:09.274Z,5.00
2018-04-29T12:58:10.006Z,6.00
2018-04-29T12:59:10.745Z,6.00
2018-04-29T13:00:11.530Z,6.00
2018-04-29T13:01:12.200Z,5.00
2018-04-29T13:02:12.929Z,5.00
2018-04-29T13:03:13.657Z,6.00
2018-04-29T13:04:14.397Z,5.00
2018-04-29T13:05:15.123Z,5.00
2018-04-29T13:06:15.852Z,6.00
2018-04-29T13:07:16.582Z,5.00
2018-04-29T13:08:17.313Z,5.00
2018-04-29T13:09:18.042Z,4.00